LOT3832 EPGD-EPWA
Flight info
| Callsign | LOT3832 |
|---|---|
| Flight time | 0h 38m |
| Altitude | 31000 |
| Route | IRLUN N133 NASOK N195 SORIX |
| Aircraft | B38M/M-SDE1FGHILORVWXY/HB1 |
Departure
| Time | 2026-04-30 18:10 |
|---|---|
| Airport | Gdańsk Lech Wałęsa Airport (EPGD) |
Arrival
| Time | 2026-04-30 18:48 |
|---|---|
| Airport | Warsaw Chopin Airport (EPWA) |
| Time | Latitude | Longitude | Altitude | Speed | Heading |
|---|---|---|---|---|---|
| 2026-04-30 17:42 | 54.38127 | 18.46558 | 462 ft | 0 kts | 23° |
| 2026-04-30 17:43 | 54.38129 | 18.46559 | 462 ft | 0 kts | 23° |
| 2026-04-30 17:59 | 54.38128 | 18.46559 | 462 ft | 1 kts | 23° |
| 2026-04-30 18:00 | 54.38101 | 18.46475 | 462 ft | 0 kts | 113° |
| 2026-04-30 18:05 | 54.37982 | 18.46584 | 462 ft | 16 kts | 196° |
| 2026-04-30 18:06 | 54.37737 | 18.47430 | 463 ft | 36 kts | 113° |
| 2026-04-30 18:07 | 54.37306 | 18.49131 | 488 ft | 16 kts | 142° |
| 2026-04-30 18:08 | 54.37184 | 18.48937 | 497 ft | 1 kts | 293° |
| 2026-04-30 18:09 | 54.38296 | 18.44443 | 877 ft | 201 kts | 293° |
| 2026-04-30 18:10 | 54.40797 | 18.34561 | 5059 ft | 234 kts | 296° |
| 2026-04-30 18:11 | 54.43158 | 18.24075 | 9186 ft | 251 kts | 279° |
| 2026-04-30 18:11 | 54.39848 | 18.17044 | 11460 ft | 291 kts | 199° |
| 2026-04-30 18:12 | 54.33840 | 18.16443 | 13053 ft | 311 kts | 139° |
| 2026-04-30 18:13 | 54.30651 | 18.21728 | 13839 ft | 340 kts | 127° |
| 2026-04-30 18:13 | 54.25025 | 18.28011 | 15355 ft | 383 kts | 152° |
| 2026-04-30 18:14 | 54.19163 | 18.32022 | 16943 ft | 396 kts | 152° |
| 2026-04-30 18:15 | 54.11349 | 18.37294 | 18881 ft | 409 kts | 152° |
| 2026-04-30 18:15 | 54.03318 | 18.42685 | 20596 ft | 419 kts | 152° |
| 2026-04-30 18:16 | 53.97880 | 18.46324 | 21686 ft | 426 kts | 152° |
| 2026-04-30 18:16 | 53.92313 | 18.50040 | 22718 ft | 433 kts | 152° |
| 2026-04-30 18:17 | 53.89500 | 18.51913 | 23228 ft | 436 kts | 152° |
| 2026-04-30 18:17 | 53.86663 | 18.53799 | 23724 ft | 439 kts | 152° |
| 2026-04-30 18:17 | 53.80926 | 18.57606 | 24593 ft | 445 kts | 152° |
| 2026-04-30 18:18 | 53.78036 | 18.59519 | 25041 ft | 448 kts | 151° |
| 2026-04-30 18:18 | 53.75114 | 18.61410 | 25423 ft | 453 kts | 153° |
| 2026-04-30 18:18 | 53.72129 | 18.63193 | 25825 ft | 455 kts | 153° |
| 2026-04-30 18:18 | 53.69129 | 18.64996 | 26206 ft | 458 kts | 153° |
| 2026-04-30 18:19 | 53.66117 | 18.66809 | 26577 ft | 461 kts | 153° |
| 2026-04-30 18:19 | 53.63095 | 18.68630 | 26957 ft | 463 kts | 153° |
| 2026-04-30 18:19 | 53.60090 | 18.70437 | 27326 ft | 466 kts | 153° |
| 2026-04-30 18:19 | 53.57016 | 18.72284 | 27661 ft | 469 kts | 153° |
| 2026-04-30 18:20 | 53.53930 | 18.74135 | 28007 ft | 472 kts | 153° |
| 2026-04-30 18:20 | 53.50824 | 18.75995 | 28356 ft | 474 kts | 153° |
| 2026-04-30 18:20 | 53.47707 | 18.77858 | 28690 ft | 476 kts | 153° |
| 2026-04-30 18:20 | 53.44567 | 18.79733 | 29035 ft | 479 kts | 153° |
| 2026-04-30 18:21 | 53.41408 | 18.81614 | 29369 ft | 481 kts | 153° |
| 2026-04-30 18:21 | 53.38236 | 18.83502 | 29697 ft | 484 kts | 152° |
| 2026-04-30 18:21 | 53.35098 | 18.85368 | 30036 ft | 487 kts | 152° |
| 2026-04-30 18:21 | 53.31897 | 18.87266 | 30335 ft | 490 kts | 152° |
| 2026-04-30 18:22 | 53.28674 | 18.89174 | 30637 ft | 492 kts | 152° |
| 2026-04-30 18:22 | 53.22193 | 18.93003 | 31204 ft | 495 kts | 152° |
| 2026-04-30 18:22 | 53.18935 | 18.94923 | 31370 ft | 498 kts | 152° |
| 2026-04-30 18:23 | 53.12410 | 18.98837 | 31354 ft | 492 kts | 147° |
| 2026-04-30 18:23 | 53.09499 | 19.01589 | 31342 ft | 470 kts | 131° |
| 2026-04-30 18:23 | 53.07244 | 19.05262 | 31236 ft | 440 kts | 120° |
| 2026-04-30 18:24 | 53.03360 | 19.12903 | 30088 ft | 433 kts | 118° |
| 2026-04-30 18:24 | 53.01461 | 19.16761 | 29485 ft | 431 kts | 118° |
| 2026-04-30 18:24 | 52.99579 | 19.20619 | 28986 ft | 426 kts | 117° |
| 2026-04-30 18:25 | 52.97721 | 19.24446 | 28481 ft | 422 kts | 118° |
| 2026-04-30 18:25 | 52.94079 | 19.31952 | 27489 ft | 415 kts | 118° |
| 2026-04-30 18:25 | 52.92269 | 19.35674 | 26991 ft | 412 kts | 118° |
| 2026-04-30 18:26 | 52.88698 | 19.43007 | 26029 ft | 407 kts | 118° |
| 2026-04-30 18:26 | 52.86926 | 19.46636 | 25534 ft | 405 kts | 118° |
| 2026-04-30 18:26 | 52.85152 | 19.50265 | 25059 ft | 403 kts | 119° |
| 2026-04-30 18:27 | 52.81636 | 19.57441 | 24124 ft | 401 kts | 119° |
| 2026-04-30 18:27 | 52.79878 | 19.61021 | 23578 ft | 400 kts | 119° |
| 2026-04-30 18:28 | 52.76406 | 19.68077 | 22622 ft | 395 kts | 120° |
| 2026-04-30 18:28 | 52.74678 | 19.71580 | 22172 ft | 392 kts | 120° |
| 2026-04-30 18:28 | 52.71261 | 19.78498 | 21297 ft | 386 kts | 120° |
| 2026-04-30 18:29 | 52.69591 | 19.81941 | 20846 ft | 380 kts | 116° |
| 2026-04-30 18:29 | 52.65699 | 19.93035 | 19591 ft | 367 kts | 112° |
| 2026-04-30 18:30 | 52.63599 | 19.99066 | 18930 ft | 364 kts | 112° |
| 2026-04-30 18:30 | 52.60676 | 20.07439 | 18007 ft | 357 kts | 112° |
| 2026-04-30 18:31 | 52.59424 | 20.10932 | 17715 ft | 353 kts | 118° |
| 2026-04-30 18:31 | 52.56601 | 20.17251 | 17607 ft | 339 kts | 115° |
| 2026-04-30 18:32 | 52.53912 | 20.23828 | 16944 ft | 354 kts | 117° |
| 2026-04-30 18:32 | 52.52511 | 20.27162 | 16583 ft | 355 kts | 118° |
| 2026-04-30 18:32 | 52.49730 | 20.33703 | 15870 ft | 350 kts | 118° |
| 2026-04-30 18:33 | 52.48340 | 20.36957 | 15481 ft | 348 kts | 118° |
| 2026-04-30 18:33 | 52.45578 | 20.43399 | 14717 ft | 344 kts | 118° |
| 2026-04-30 18:33 | 52.44198 | 20.46614 | 14183 ft | 348 kts | 118° |
| 2026-04-30 18:34 | 52.42797 | 20.49871 | 13546 ft | 352 kts | 119° |
| 2026-04-30 18:34 | 52.39973 | 20.56426 | 12725 ft | 347 kts | 119° |
| 2026-04-30 18:34 | 52.38590 | 20.59632 | 12365 ft | 343 kts | 120° |
| 2026-04-30 18:35 | 52.37215 | 20.62813 | 11998 ft | 340 kts | 120° |
| 2026-04-30 18:35 | 52.35856 | 20.65954 | 11628 ft | 338 kts | 120° |
| 2026-04-30 18:35 | 52.34503 | 20.69076 | 11242 ft | 335 kts | 120° |
| 2026-04-30 18:36 | 52.31813 | 20.75273 | 10493 ft | 333 kts | 121° |
| 2026-04-30 18:36 | 52.30477 | 20.78346 | 10090 ft | 331 kts | 121° |
| 2026-04-30 18:36 | 52.27808 | 20.84475 | 9261 ft | 329 kts | 121° |
| 2026-04-30 18:37 | 52.26933 | 20.86480 | 9033 ft | 326 kts | 121° |
| 2026-04-30 18:37 | 52.25208 | 20.90430 | 8592 ft | 322 kts | 121° |
| 2026-04-30 18:37 | 52.23915 | 20.93386 | 8255 ft | 318 kts | 121° |
| 2026-04-30 18:37 | 52.22675 | 20.96218 | 7913 ft | 306 kts | 121° |
| 2026-04-30 18:38 | 52.21461 | 20.98988 | 7606 ft | 294 kts | 121° |
| 2026-04-30 18:38 | 52.20682 | 21.00762 | 7405 ft | 286 kts | 121° |
| 2026-04-30 18:38 | 52.19545 | 21.03352 | 7112 ft | 276 kts | 121° |
| 2026-04-30 18:38 | 52.18446 | 21.05853 | 6865 ft | 265 kts | 121° |
| 2026-04-30 18:39 | 52.17406 | 21.08217 | 6732 ft | 249 kts | 121° |
| 2026-04-30 18:39 | 52.16418 | 21.10462 | 6612 ft | 238 kts | 121° |
| 2026-04-30 18:39 | 52.15428 | 21.12551 | 6511 ft | 231 kts | 133° |
| 2026-04-30 18:39 | 52.14093 | 21.13997 | 6277 ft | 230 kts | 147° |
| 2026-04-30 18:40 | 52.12712 | 21.15254 | 6038 ft | 225 kts | 148° |
| 2026-04-30 18:40 | 52.11356 | 21.16473 | 5801 ft | 219 kts | 148° |
| 2026-04-30 18:40 | 52.10044 | 21.17640 | 5548 ft | 213 kts | 148° |
| 2026-04-30 18:40 | 52.08761 | 21.18774 | 5311 ft | 206 kts | 148° |
| 2026-04-30 18:41 | 52.07524 | 21.19862 | 5117 ft | 197 kts | 149° |
| 2026-04-30 18:41 | 52.06353 | 21.20889 | 4993 ft | 189 kts | 149° |
| 2026-04-30 18:41 | 52.05156 | 21.21936 | 4961 ft | 200 kts | 149° |
| 2026-04-30 18:41 | 52.03837 | 21.22644 | 4831 ft | 206 kts | 179° |
| 2026-04-30 18:42 | 52.02465 | 21.22044 | 4720 ft | 203 kts | 216° |
| 2026-04-30 18:42 | 52.01284 | 21.18358 | 4326 ft | 186 kts | 272° |
| 2026-04-30 18:42 | 52.01273 | 21.16310 | 4092 ft | 183 kts | 275° |
| 2026-04-30 18:45 | 52.07814 | 21.04349 | 2127 ft | 144 kts | 333° |
| 2026-04-30 18:45 | 52.08677 | 21.03598 | 1928 ft | 138 kts | 333° |
| 2026-04-30 18:45 | 52.09507 | 21.02875 | 1744 ft | 138 kts | 333° |
| 2026-04-30 18:46 | 52.10335 | 21.02153 | 1562 ft | 138 kts | 332° |
| 2026-04-30 18:46 | 52.11173 | 21.01423 | 1378 ft | 139 kts | 332° |
| 2026-04-30 18:46 | 52.12012 | 21.00688 | 1183 ft | 140 kts | 332° |
| 2026-04-30 18:46 | 52.12854 | 20.99941 | 976 ft | 140 kts | 333° |
| 2026-04-30 18:47 | 52.13700 | 20.99219 | 759 ft | 140 kts | 333° |
| 2026-04-30 18:47 | 52.14529 | 20.98508 | 578 ft | 139 kts | 332° |
| 2026-04-30 18:47 | 52.15358 | 20.97778 | 407 ft | 138 kts | 332° |
| 2026-04-30 18:47 | 52.16154 | 20.97076 | 351 ft | 123 kts | 332° |
| 2026-04-30 18:48 | 52.16679 | 20.96619 | 357 ft | 55 kts | 332° |
| 2026-04-30 18:48 | 52.16940 | 20.96511 | 349 ft | 35 kts | 359° |
| 2026-04-30 18:48 | 52.17046 | 20.96517 | 351 ft | 0 kts | 10° |
| 2026-04-30 18:50 | 52.17048 | 20.96518 | 351 ft | 0 kts | 13° |
| 2026-04-30 18:50 | 52.17050 | 20.96519 | 350 ft | 1 kts | 15° |
| 2026-04-30 18:50 | 52.17058 | 20.96524 | 350 ft | 2 kts | 24° |
| 2026-04-30 18:51 | 52.17074 | 20.96541 | 351 ft | 4 kts | 41° |
| 2026-04-30 18:51 | 52.17097 | 20.96593 | 354 ft | 7 kts | 62° |
| 2026-04-30 18:51 | 52.17131 | 20.96697 | 358 ft | 14 kts | 60° |
| 2026-04-30 18:51 | 52.17141 | 20.96850 | 356 ft | 17 kts | 141° |
| 2026-04-30 18:52 | 52.17030 | 20.96949 | 352 ft | 13 kts | 152° |
| 2026-04-30 18:52 | 52.16982 | 20.96995 | 355 ft | 8 kts | 134° |
| 2026-04-30 18:52 | 52.16980 | 20.97060 | 360 ft | 6 kts | 70° |
| 2026-04-30 18:52 | 52.16991 | 20.97106 | 353 ft | 3 kts | 68° |
| 2026-04-30 18:53 | 52.16993 | 20.97115 | 352 ft | 2 kts | 70° |
| 2026-04-30 18:53 | 52.16997 | 20.97131 | 357 ft | 1 kts | 69° |
| 2026-04-30 18:53 | 52.16999 | 20.97139 | 356 ft | 0 kts | 69° |